Time;durP1;ratioP1;P1;durP2;ratioP2;P2;SDS_P1;SDS_P2;PMS_P1;PMS_P2;Temp;Humidity;BMP_temperature;BMP_pressure;BME280_temperature;BME280_humidity;BME280_pressure;Samples;Min_cycle;Max_cycle;Signal;HPM_P1;HPM_P2
2021/09/11 00:02:24;;;;;;;3.10;1.58;;;;;;;17.09;77.66;100792.97;4949382;29;20043;-79
2021/09/11 00:04:51;;;;;;;3.38;1.95;;;;;;;17.08;77.65;100791.34;4933150;29;20054;-78
2021/09/11 00:07:18;;;;;;;4.80;2.45;;;;;;;17.09;77.43;100790.19;4949196;28;20070;-79
2021/09/11 00:09:45;;;;;;;4.45;1.98;;;;;;;17.11;77.44;100793.38;4935913;29;20106;-79
2021/09/11 00:12:12;;;;;;;3.85;2.20;;;;;;;17.10;77.82;100789.00;4952739;28;20043;-79
2021/09/11 00:14:43;;;;;;;2.65;1.75;;;;;;;17.06;77.56;100802.13;4932804;29;20058;-79
2021/09/11 00:17:10;;;;;;;2.55;2.05;;;;;;;17.05;77.66;100797.72;4949854;28;20095;-79
2021/09/11 00:19:37;;;;;;;4.40;1.98;;;;;;;16.99;77.85;100802.09;4948677;28;20126;-79
2021/09/11 00:22:04;;;;;;;2.80;1.67;;;;;;;17.01;77.61;100799.69;4933898;29;20082;-78
2021/09/11 00:24:30;;;;;;;3.30;2.08;;;;;;;16.97;77.43;100801.69;4949139;29;20075;-79
2021/09/11 00:26:57;;;;;;;3.35;2.15;;;;;;;17.00;77.36;100806.47;4946592;28;20070;-78
2021/09/11 00:29:24;;;;;;;2.35;2.03;;;;;;;17.00;77.46;100803.69;4949455;28;20492;-79
2021/09/11 00:31:51;;;;;;;5.38;2.10;;;;;;;17.02;77.25;100801.31;4952273;28;20039;-79
2021/09/11 00:34:18;;;;;;;2.05;1.63;;;;;;;17.03;77.28;100802.91;4953433;29;20039;-79
2021/09/11 00:36:48;;;;;;;2.38;2.00;;;;;;;17.01;77.21;100797.72;4952153;29;20043;-79
2021/09/11 00:39:15;;;;;;;3.05;1.83;;;;;;;17.01;77.40;100796.91;4936563;29;20043;-79
2021/09/11 00:41:42;;;;;;;4.35;2.33;;;;;;;16.98;77.50;100797.69;4938036;29;20480;-79
2021/09/11 00:44:09;;;;;;;4.40;2.65;;;;;;;16.94;77.49;100796.84;4955386;28;20491;-79
2021/09/11 00:46:35;;;;;;;3.95;2.10;;;;;;;16.93;77.55;100796.03;4954076;28;20050;-79
2021/09/11 00:49:02;;;;;;;3.40;2.08;;;;;;;16.94;77.46;100794.06;4954900;28;20049;-79
2021/09/11 00:51:30;;;;;;;4.50;2.08;;;;;;;16.87;77.64;100793.97;4951740;29;20070;-79
2021/09/11 00:53:58;;;;;;;4.20;2.30;;;;;;;16.83;77.63;100801.56;4952516;28;20039;-79
2021/09/11 00:56:26;;;;;;;3.53;2.65;;;;;;;16.79;77.79;100803.50;4951075;28;20126;-79
2021/09/11 00:58:53;;;;;;;5.57;2.63;;;;;;;16.76;77.76;100798.69;4957560;28;20171;-78
2021/09/11 01:01:19;;;;;;;5.13;2.30;;;;;;;16.75;77.80;100805.47;4952782;28;20050;-79
2021/09/11 01:03:47;;;;;;;4.10;2.05;;;;;;;16.71;77.78;100811.00;4934543;29;20444;-79
2021/09/11 01:06:14;;;;;;;2.90;2.13;;;;;;;16.67;77.80;100803.78;4949592;29;20050;-78
2021/09/11 01:08:41;;;;;;;3.50;1.95;;;;;;;16.65;77.74;100807.00;4940352;29;20039;-79
2021/09/11 01:11:09;;;;;;;3.88;2.30;;;;;;;16.62;77.45;100801.34;4936357;29;20131;-79
2021/09/11 01:13:37;;;;;;;3.50;2.22;;;;;;;16.60;77.91;100806.53;4951310;28;20051;-79
2021/09/11 01:16:05;;;;;;;3.08;2.30;;;;;;;16.56;77.79;100802.88;4936144;29;20043;-79
2021/09/11 01:18:33;;;;;;;2.67;1.95;;;;;;;16.52;78.12;100810.41;4930506;28;20043;-79
2021/09/11 01:21:00;;;;;;;2.10;1.90;;;;;;;16.49;78.17;100813.97;4936698;29;20451;-79
2021/09/11 01:23:28;;;;;;;6.53;2.58;;;;;;;16.44;78.16;100813.09;4952680;28;20475;-79
2021/09/11 01:25:55;;;;;;;4.35;2.10;;;;;;;16.35;78.31;100809.84;4950212;29;20039;-78
2021/09/11 01:28:21;;;;;;;5.85;1.90;;;;;;;16.31;78.48;100817.34;4949770;28;20077;-79
2021/09/11 01:30:48;;;;;;;3.35;2.17;;;;;;;16.31;78.23;100814.56;4949374;29;20514;-79
2021/09/11 01:33:15;;;;;;;4.65;1.75;;;;;;;16.33;78.37;100817.81;4948432;29;20087;-79
2021/09/11 01:35:42;;;;;;;4.10;1.65;;;;;;;16.30;78.26;100810.19;4952118;29;20488;-79
2021/09/11 01:38:09;;;;;;;5.95;1.75;;;;;;;16.30;78.01;100817.75;4940596;29;20039;-79
2021/09/11 01:40:36;;;;;;;3.13;1.33;;;;;;;16.27;78.10;100808.16;4950489;29;20039;-79
2021/09/11 01:43:03;;;;;;;3.88;1.40;;;;;;;16.22;78.10;100807.69;4951121;28;20051;-79
2021/09/11 01:45:29;;;;;;;1.98;1.45;;;;;;;16.17;78.14;100803.25;4937290;29;20047;-79
2021/09/11 01:47:56;;;;;;;3.15;1.70;;;;;;;16.15;78.31;100800.00;4947234;28;20452;-79
2021/09/11 01:50:23;;;;;;;3.35;1.90;;;;;;;16.16;78.06;100801.63;4953232;28;20043;-79
2021/09/11 01:52:52;;;;;;;4.53;1.70;;;;;;;16.11;78.27;100801.97;4956771;28;20118;-79
2021/09/11 01:55:23;;;;;;;3.90;1.75;;;;;;;16.10;78.32;100800.34;4949950;28;20389;-79
2021/09/11 01:57:50;;;;;;;2.67;1.80;;;;;;;16.10;78.68;100808.72;4936597;29;20061;-79
2021/09/11 02:00:19;;;;;;;2.20;1.85;;;;;;;16.09;78.32;100807.13;4934269;29;20078;-79
2021/09/11 02:02:46;;;;;;;2.28;1.70;;;;;;;16.05;78.37;100799.88;4934920;29;20140;-79
2021/09/11 02:05:23;;;;;;;4.90;1.95;;;;;;;15.98;78.78;100805.38;4951132;28;20058;-79
2021/09/11 02:07:50;;;;;;;8.48;3.10;;;;;;;15.93;79.07;100797.34;4952878;28;20063;-79
2021/09/11 02:10:19;;;;;;;3.70;1.80;;;;;;;15.92;79.07;100802.13;4934624;29;20419;-79
2021/09/11 02:12:46;;;;;;;3.47;1.50;;;;;;;15.96;78.98;100800.19;4950228;29;20077;-79
2021/09/11 02:15:13;;;;;;;2.33;1.80;;;;;;;15.97;78.84;100807.38;4953638;28;20047;-79
2021/09/11 02:17:41;;;;;;;3.55;2.08;;;;;;;15.97;78.79;100800.97;4950489;28;20046;-79
2021/09/11 02:20:11;;;;;;;2.15;1.90;;;;;;;15.93;79.21;100800.16;4935152;29;20412;-79
2021/09/11 02:22:39;;;;;;;4.45;2.20;;;;;;;15.91;79.20;100783.78;4951561;28;20053;-79
2021/09/11 02:25:07;;;;;;;3.95;2.05;;;;;;;15.96;79.47;100796.59;4948184;28;20051;-79
2021/09/11 02:27:35;;;;;;;5.63;2.33;;;;;;;16.00;79.30;100781.47;4949938;28;20047;-79
2021/09/11 02:30:03;;;;;;;6.05;2.42;;;;;;;15.99;79.42;100777.06;4948797;28;20047;-78
2021/09/11 02:32:30;;;;;;;3.10;2.15;;;;;;;16.01;79.63;100779.50;4950581;28;20412;-78
2021/09/11 02:34:57;;;;;;;2.80;2.10;;;;;;;16.00;79.61;100787.06;4950390;28;20041;-79
2021/09/11 02:37:23;;;;;;;3.08;2.35;;;;;;;16.01;79.53;100785.91;4950545;28;20051;-78
2021/09/11 02:39:50;;;;;;;4.57;2.30;;;;;;;16.00;79.57;100781.47;4949969;29;20091;-79
2021/09/11 02:42:17;;;;;;;3.60;2.58;;;;;;;16.03;79.63;100783.53;4935884;29;20046;-79
2021/09/11 02:44:43;;;;;;;6.80;2.30;;;;;;;15.99;79.99;100770.72;4951059;29;20073;-78
2021/09/11 02:47:10;;;;;;;6.45;2.55;;;;;;;15.97;79.88;100782.25;4950691;28;20074;-78
2021/09/11 02:49:37;;;;;;;2.20;2.00;;;;;;;15.93;80.10;100781.41;4949057;28;20381;-78
2021/09/11 02:52:04;;;;;;;2.35;1.88;;;;;;;15.87;80.20;100785.72;4936021;29;20490;-79
2021/09/11 02:54:30;;;;;;;1.92;1.65;;;;;;;15.89;80.08;100780.53;4948323;28;20047;-79
2021/09/11 02:56:57;;;;;;;4.55;1.95;;;;;;;15.87;79.89;100780.13;4947923;28;20162;-79
2021/09/11 02:59:24;;;;;;;4.38;1.65;;;;;;;15.86;80.00;100775.72;4933799;29;20098;-79
2021/09/11 03:01:51;;;;;;;4.28;1.67;;;;;;;15.79;79.85;100779.25;4951111;28;20053;-79
2021/09/11 03:04:18;;;;;;;2.75;1.80;;;;;;;15.78;80.14;100774.03;4950708;28;20046;-78
2021/09/11 03:06:44;;;;;;;2.30;1.75;;;;;;;15.74;80.19;100767.59;4935649;28;20058;-78
2021/09/11 03:09:11;;;;;;;2.30;1.83;;;;;;;15.73;80.07;100761.22;4947137;29;20039;-79
2021/09/11 03:11:38;;;;;;;3.72;1.80;;;;;;;15.68;80.04;100755.16;4934123;29;20058;-78
2021/09/11 03:14:04;;;;;;;2.92;1.58;;;;;;;15.62;80.08;100765.06;4933139;29;20050;-79
2021/09/11 03:16:31;;;;;;;4.50;2.03;;;;;;;15.55;80.42;100762.97;4933322;29;20133;-78
2021/09/11 03:18:58;;;;;;;2.83;1.48;;;;;;;15.54;80.33;100757.78;4950352;29;20114;-78
2021/09/11 03:21:25;;;;;;;3.22;1.30;;;;;;;15.55;80.16;100773.31;4957840;28;20047;-79
2021/09/11 03:23:51;;;;;;;2.00;1.48;;;;;;;15.56;80.00;100772.16;4949819;28;20142;-79
2021/09/11 03:26:18;;;;;;;1.58;1.48;;;;;;;15.52;80.02;100772.09;4951659;28;20043;-78
2021/09/11 03:28:45;;;;;;;1.67;1.40;;;;;;;15.48;80.21;100778.81;4948592;28;20074;-79
2021/09/11 03:31:11;;;;;;;2.55;1.63;;;;;;;15.46;80.33;100783.97;4949005;29;20062;-78
2021/09/11 03:33:38;;;;;;;3.15;1.30;;;;;;;15.47;80.25;100785.56;4956057;28;20051;-79
2021/09/11 03:36:05;;;;;;;2.80;1.60;;;;;;;15.47;80.41;100786.38;4957391;28;20139;-79
2021/09/11 03:38:32;;;;;;;1.98;1.27;;;;;;;15.49;80.22;100794.38;4949726;28;20484;-78
2021/09/11 03:40:58;;;;;;;2.33;1.45;;;;;;;15.46;79.81;100800.72;4947126;29;20498;-79
2021/09/11 03:43:25;;;;;;;3.22;1.55;;;;;;;15.45;80.25;100799.88;4933629;28;20073;-79
2021/09/11 03:45:52;;;;;;;3.00;1.70;;;;;;;15.44;79.73;100808.59;4946671;28;20571;-79
2021/09/11 03:48:19;;;;;;;5.38;2.30;;;;;;;15.48;79.98;100801.94;4933184;28;20131;-78
2021/09/11 03:50:45;;;;;;;2.08;1.50;;;;;;;15.49;80.22;100811.13;4937853;28;20740;-79
2021/09/11 03:53:12;;;;;;;3.60;2.10;;;;;;;15.50;80.11;100816.31;4948419;28;20134;-78
2021/09/11 03:55:39;;;;;;;2.75;1.55;;;;;;;15.44;80.52;100812.22;4942165;28;20088;-79
2021/09/11 03:58:07;;;;;;;2.95;1.67;;;;;;;15.47;80.48;100805.09;4949083;28;20057;-78
2021/09/11 04:00:35;;;;;;;4.35;2.15;;;;;;;15.49;80.52;100825.09;4949556;28;20089;-79
2021/09/11 04:03:02;;;;;;;2.92;1.92;;;;;;;15.55;80.50;100831.94;4932289;29;20042;-79
2021/09/11 04:05:30;;;;;;;2.45;1.50;;;;;;;15.54;80.67;100828.31;4921811;29;20039;-79
2021/09/11 04:07:56;;;;;;;4.32;1.55;;;;;;;15.61;80.43;100833.22;4937300;29;20154;-78
2021/09/11 04:10:23;;;;;;;3.95;1.50;;;;;;;15.63;80.53;100825.25;4951953;28;20054;-78
2021/09/11 04:12:51;;;;;;;2.47;1.90;;;;;;;15.67;80.68;100838.06;4935500;29;20054;-78
2021/09/11 04:15:19;;;;;;;3.78;2.10;;;;;;;15.69;80.69;100838.53;4951537;28;20054;-79
2021/09/11 04:17:45;;;;;;;2.33;1.83;;;;;;;15.69;80.60;100832.94;4959971;28;20066;-78
2021/09/11 04:20:14;;;;;;;4.38;2.17;;;;;;;15.70;80.61;100828.19;4934337;29;20040;-78
2021/09/11 04:22:40;;;;;;;3.15;2.10;;;;;;;15.71;80.90;100835.34;4943014;29;20477;-79
2021/09/11 04:25:07;;;;;;;2.95;1.70;;;;;;;15.73;80.88;100841.34;4955497;28;20093;-78
2021/09/11 04:27:34;;;;;;;4.45;1.70;;;;;;;15.66;80.77;100842.06;4946972;28;20059;-78
2021/09/11 04:30:02;;;;;;;2.80;1.88;;;;;;;15.70;80.76;100828.97;4951569;28;20420;-78
2021/09/11 04:32:28;;;;;;;2.70;1.48;;;;;;;15.70;80.87;100833.75;4947975;29;20130;-78
2021/09/11 04:34:55;;;;;;;3.90;1.42;;;;;;;15.70;80.70;100833.75;4934886;29;20043;-79
2021/09/11 04:37:22;;;;;;;2.95;1.55;;;;;;;15.70;80.91;100839.34;4921226;29;20488;-79
2021/09/11 04:39:48;;;;;;;4.70;1.85;;;;;;;15.70;80.67;100834.53;4953614;28;20036;-78
2021/09/11 04:42:15;;;;;;;2.88;1.70;;;;;;;15.74;80.92;100834.59;4938699;29;20043;-79
2021/09/11 04:44:42;;;;;;;3.35;1.50;;;;;;;15.74;80.38;100843.78;4952332;29;20451;-79
2021/09/11 04:47:08;;;;;;;3.20;1.67;;;;;;;15.74;80.51;100842.97;4934073;29;20051;-79
2021/09/11 04:49:35;;;;;;;1.77;1.60;;;;;;;15.77;80.40;100845.00;4941075;29;20048;-78
2021/09/11 04:52:04;;;;;;;1.83;1.40;;;;;;;15.76;80.36;100854.56;4938347;29;20043;-79
2021/09/11 04:54:31;;;;;;;3.65;1.90;;;;;;;15.74;80.39;100856.94;4950046;28;20040;-79
2021/09/11 04:56:58;;;;;;;2.15;1.35;;;;;;;15.75;80.31;100852.97;4940061;29;20043;-79
2021/09/11 04:59:25;;;;;;;1.95;1.27;;;;;;;15.72;80.16;100859.31;4951876;28;20103;-79
2021/09/11 05:01:52;;;;;;;2.50;1.58;;;;;;;15.71;80.30;100852.09;4949575;29;20039;-79
2021/09/11 05:04:19;;;;;;;3.47;1.55;;;;;;;15.68;80.38;100850.06;4936222;29;20122;-78
2021/09/11 05:06:46;;;;;;;2.45;1.25;;;;;;;15.69;79.99;100849.69;4952000;28;20072;-79
2021/09/11 05:09:13;;;;;;;1.75;1.58;;;;;;;15.66;80.09;100852.44;4949304;29;20129;-79
2021/09/11 05:11:40;;;;;;;4.82;1.48;;;;;;;15.64;80.21;100852.81;4950842;29;20043;-79
2021/09/11 05:14:07;;;;;;;2.80;1.23;;;;;;;15.69;79.87;100848.88;4950156;29;20047;-79
2021/09/11 05:16:33;;;;;;;3.05;1.35;;;;;;;15.67;79.79;100846.44;4941316;29;20520;-79
2021/09/11 05:19:00;;;;;;;1.40;1.30;;;;;;;15.68;79.78;100850.88;4950168;29;20114;-78
2021/09/11 05:21:27;;;;;;;2.58;1.42;;;;;;;15.63;79.50;100853.97;4934971;29;20048;-78
2021/09/11 05:23:53;;;;;;;3.83;1.60;;;;;;;15.59;79.71;100857.91;4935954;29;20044;-79
2021/09/11 05:26:20;;;;;;;2.88;1.90;;;;;;;15.54;79.70;100864.59;4948651;29;20529;-79
2021/09/11 05:28:47;;;;;;;2.03;1.00;;;;;;;15.54;79.70;100863.81;4954820;28;20053;-79
2021/09/11 05:31:14;;;;;;;1.70;1.40;;;;;;;15.51;79.81;100864.56;4957822;28;20043;-79
2021/09/11 05:33:40;;;;;;;2.10;1.30;;;;;;;15.50;79.84;100865.72;4952374;28;20075;-79
2021/09/11 05:36:07;;;;;;;2.03;1.30;;;;;;;15.51;79.81;100864.56;4943180;28;20131;-79
2021/09/11 05:38:34;;;;;;;1.10;1.00;;;;;;;15.48;79.89;100862.53;4951567;28;20061;-79
2021/09/11 05:41:01;;;;;;;3.63;1.52;;;;;;;15.49;79.84;100862.13;4957357;28;20035;-79
2021/09/11 05:43:27;;;;;;;2.35;0.75;;;;;;;15.50;79.56;100860.16;4935323;29;20050;-79
2021/09/11 05:45:54;;;;;;;2.97;0.98;;;;;;;15.53;79.66;100862.19;4936665;29;20081;-78
2021/09/11 05:48:21;;;;;;;1.90;0.90;;;;;;;15.53;79.70;100863.00;4950633;29;20047;-79
2021/09/11 05:50:48;;;;;;;4.00;0.93;;;;;;;15.54;79.76;100872.97;4958481;28;20063;-79
2021/09/11 05:53:14;;;;;;;2.63;0.90;;;;;;;15.55;79.76;100882.16;4931207;29;20126;-78
2021/09/11 05:55:41;;;;;;;1.35;0.88;;;;;;;15.54;79.76;100881.34;4935300;29;20058;-78
2021/09/11 05:58:08;;;;;;;1.92;1.27;;;;;;;15.55;79.70;100882.16;4949723;29;20051;-79
2021/09/11 06:00:35;;;;;;;1.65;1.30;;;;;;;15.55;79.86;100887.72;4933680;29;20151;-79
2021/09/11 06:03:02;;;;;;;1.25;0.90;;;;;;;15.53;79.84;100892.91;4934081;29;20070;-78
2021/09/11 06:05:29;;;;;;;1.83;1.30;;;;;;;15.55;79.78;100890.53;4949994;29;20500;-79
2021/09/11 06:07:55;;;;;;;2.20;2.00;;;;;;;15.56;79.52;100894.94;4944504;28;20069;-79
2021/09/11 06:10:22;;;;;;;1.75;1.50;;;;;;;15.55;79.89;100887.72;4957556;28;20134;-79
2021/09/11 06:12:49;;;;;;;2.30;1.40;;;;;;;15.55;79.71;100904.47;4957729;28;20083;-79
2021/09/11 06:15:16;;;;;;;3.28;1.58;;;;;;;15.54;79.69;100900.88;4953928;28;20448;-78
2021/09/11 06:17:43;;;;;;;2.08;1.48;;;;;;;15.55;79.62;100905.28;4953638;28;20118;-79
2021/09/11 06:20:10;;;;;;;2.13;1.70;;;;;;;15.54;79.86;100906.47;4943765;28;20075;-79
2021/09/11 06:22:37;;;;;;;1.70;1.60;;;;;;;15.55;79.72;100915.63;4958138;28;20043;-79
2021/09/11 06:25:05;;;;;;;2.65;1.45;;;;;;;15.56;79.71;100908.91;4959648;28;20113;-79
2021/09/11 06:27:32;;;;;;;3.10;1.33;;;;;;;15.59;79.91;100916.53;4943482;28;20126;-79
2021/09/11 06:29:59;;;;;;;1.50;1.00;;;;;;;15.63;80.06;100918.19;4951846;28;20035;-78
2021/09/11 06:32:26;;;;;;;1.30;1.10;;;;;;;15.67;79.63;100923.81;4953914;28;20035;-79
2021/09/11 06:34:53;;;;;;;2.22;1.20;;;;;;;15.68;79.66;100917.84;4935276;28;20047;-79
2021/09/11 06:37:19;;;;;;;1.50;1.40;;;;;;;15.69;79.66;100927.03;4936772;28;20037;-79
2021/09/11 06:39:46;;;;;;;2.42;1.15;;;;;;;15.68;79.89;100919.84;4938730;28;20047;-79
2021/09/11 06:42:14;;;;;;;1.63;1.30;;;;;;;15.71;79.83;100924.66;4967423;28;20049;-79
2021/09/11 06:44:41;;;;;;;3.30;2.13;;;;;;;15.74;79.79;100941.47;4937255;29;20124;-79
2021/09/11 06:47:08;;;;;;;2.63;1.52;;;;;;;15.77;79.72;100945.50;4957409;28;20051;-79
2021/09/11 06:49:35;;;;;;;3.47;1.52;;;;;;;15.79;79.92;100943.13;4944917;28;20059;-79
2021/09/11 06:52:02;;;;;;;4.35;2.35;;;;;;;15.77;79.60;100942.72;4942360;28;20047;-78
2021/09/11 06:54:28;;;;;;;4.15;2.25;;;;;;;15.76;79.78;100944.69;4957165;28;20035;-79
2021/09/11 06:56:55;;;;;;;3.67;2.03;;;;;;;15.82;79.71;100947.97;4922391;28;20157;-78
2021/09/11 06:59:22;;;;;;;3.50;1.88;;;;;;;15.85;80.27;100950.03;4937349;28;20466;-79
2021/09/11 07:01:49;;;;;;;4.95;2.92;;;;;;;15.88;79.49;100952.06;4937758;29;20094;-78
2021/09/11 07:04:15;;;;;;;4.15;2.55;;;;;;;15.93;79.58;100948.13;4953789;28;20087;-79
2021/09/11 07:06:42;;;;;;;5.28;2.67;;;;;;;15.95;79.56;100948.56;4957504;28;20059;-79
2021/09/11 07:09:09;;;;;;;2.65;2.08;;;;;;;15.97;79.57;100952.59;4949742;28;20043;-79
2021/09/11 07:11:36;;;;;;;4.03;1.77;;;;;;;15.99;79.43;100955.81;4953493;28;20414;-79
2021/09/11 07:14:03;;;;;;;2.17;1.73;;;;;;;16.03;79.63;100959.47;4951451;28;20121;-79
2021/09/11 07:16:29;;;;;;;2.78;1.38;;;;;;;16.08;79.64;100953.56;4950302;28;20047;-80
2021/09/11 07:18:56;;;;;;;1.40;1.08;;;;;;;16.08;79.30;100961.94;4952512;28;20039;-79
2021/09/11 07:21:23;;;;;;;1.67;0.93;;;;;;;16.10;79.15;100959.56;4950801;28;20119;-79
2021/09/11 07:23:50;;;;;;;2.03;0.95;;;;;;;16.12;79.14;100962.81;4951338;28;20043;-78
2021/09/11 07:26:19;;;;;;;1.33;0.80;;;;;;;16.05;79.26;100968.25;4951418;28;20045;-79
2021/09/11 07:28:48;;;;;;;1.33;1.00;;;;;;;16.05;78.94;100962.69;4952276;28;20059;-79
2021/09/11 07:31:15;;;;;;;3.38;0.82;;;;;;;16.00;79.00;100965.78;4939741;29;20051;-79
2021/09/11 07:33:43;;;;;;;5.60;1.45;;;;;;;16.02;78.97;100969.00;4947533;28;20040;-78
2021/09/11 07:36:09;;;;;;;1.75;1.20;;;;;;;15.98;78.93;100961.78;4947821;28;20044;-79
2021/09/11 07:38:37;;;;;;;0.98;0.80;;;;;;;15.97;79.02;100960.97;4951901;28;20043;-79
2021/09/11 07:41:04;;;;;;;1.38;1.00;;;;;;;16.02;78.95;100960.63;4923506;29;20822;-79
2021/09/11 07:43:31;;;;;;;1.08;0.90;;;;;;;16.13;78.91;100966.38;4953205;28;20411;-78
2021/09/11 07:45:58;;;;;;;3.80;1.10;;;;;;;16.18;78.73;100966.84;4950933;28;20043;-79
2021/09/11 07:48:25;;;;;;;1.50;0.98;;;;;;;16.21;78.78;100980.06;4949319;28;20094;-78
2021/09/11 07:50:52;;;;;;;3.15;2.20;;;;;;;16.26;78.73;100973.34;4951142;28;20041;-79
2021/09/11 07:53:19;;;;;;;1.08;0.90;;;;;;;16.23;78.40;100974.91;4951582;28;20135;-80
2021/09/11 07:55:46;;;;;;;5.95;1.10;;;;;;;16.25;78.72;100983.75;4951473;28;20043;-79
2021/09/11 07:58:15;;;;;;;1.05;0.95;;;;;;;16.30;78.71;100986.19;4951724;28;20522;-79
2021/09/11 08:00:42;;;;;;;0.85;0.80;;;;;;;16.28;78.49;100991.34;4953175;28;20389;-79
2021/09/11 08:03:09;;;;;;;2.17;1.00;;;;;;;16.31;78.48;100996.19;4935526;28;20149;-80
2021/09/11 08:05:37;;;;;;;1.33;1.08;;;;;;;16.36;78.54;100995.84;4960039;28;20039;-79
2021/09/11 08:08:04;;;;;;;0.82;0.65;;;;;;;16.41;78.32;100989.91;4951062;28;20059;-79
2021/09/11 08:10:31;;;;;;;0.80;0.80;;;;;;;16.53;78.28;100990.91;4956477;28;20082;-80
2021/09/11 08:12:57;;;;;;;1.63;0.80;;;;;;;16.60;78.24;100993.81;4938403;29;20121;-79
2021/09/11 08:15:24;;;;;;;2.50;1.00;;;;;;;16.65;77.93;100988.69;4950702;28;20047;-79
2021/09/11 08:17:51;;;;;;;3.10;1.60;;;;;;;16.67;77.80;100989.13;4950638;28;20046;-79
2021/09/11 08:20:18;;;;;;;1.70;0.93;;;;;;;16.71;77.79;101012.31;4950096;28;20043;-79
2021/09/11 08:22:45;;;;;;;1.70;1.40;;;;;;;16.82;77.85;100999.28;4965443;28;20058;-79
2021/09/11 08:25:12;;;;;;;3.33;1.77;;;;;;;16.88;77.41;101008.13;4954092;28;20574;-79
2021/09/11 08:27:39;;;;;;;1.95;1.30;;;;;;;16.97;77.29;101012.22;4934323;28;20411;-81
2021/09/11 08:30:07;;;;;;;3.83;1.38;;;;;;;17.03;76.95;101009.91;4950357;28;20046;-80
2021/09/11 08:32:35;;;;;;;1.27;0.90;;;;;;;17.07;76.85;101010.75;4933767;28;20053;-79
2021/09/11 08:35:03;;;;;;;1.25;1.10;;;;;;;17.12;76.72;101009.59;4950651;28;20039;-79
2021/09/11 08:37:30;;;;;;;3.08;1.58;;;;;;;17.19;76.62;101009.66;4919640;28;20074;-79
2021/09/11 08:39:57;;;;;;;2.53;1.23;;;;;;;17.27;76.52;101012.16;4949450;28;20047;-78
2021/09/11 08:42:24;;;;;;;2.55;1.33;;;;;;;17.32;76.32;101019.41;4949934;28;20047;-81
2021/09/11 08:44:50;;;;;;;2.00;1.10;;;;;;;17.35;76.28;101018.66;4952024;28;20130;-84
2021/09/11 08:47:17;;;;;;;1.42;1.00;;;;;;;17.42;76.24;101024.34;4935468;29;20046;-85
2021/09/11 08:49:44;;;;;;;2.13;1.30;;;;;;;17.42;76.29;101030.72;4954538;28;20122;-84
2021/09/11 08:52:12;;;;;;;1.70;1.05;;;;;;;17.48;76.14;101031.16;4938249;29;20070;-85
2021/09/11 08:54:39;;;;;;;1.98;1.08;;;;;;;17.47;75.92;101033.16;4955801;28;20047;-85
2021/09/11 08:57:26;;;;;;;2.78;1.08;;;;;;;17.44;75.26;101031.16;4957991;28;20039;-84
2021/09/11 08:59:54;;;;;;;3.15;1.25;;;;;;;17.52;75.81;101029.22;4939334;29;20067;-87
2021/09/11 09:02:23;;;;;;;1.00;0.98;;;;;;;17.61;75.59;101038.13;4936488;28;20070;-85
2021/09/11 09:04:55;;;;;;;0.85;0.85;;;;;;;17.67;74.78;101036.59;4924393;28;20555;-85
2021/09/11 09:07:35;;;;;;;1.00;0.82;;;;;;;17.81;74.76;101041.53;4953159;28;20062;-85
2021/09/11 09:10:15;;;;;;;7.28;1.30;;;;;;;18.08;75.00;101037.34;4935740;28;20043;-84
2021/09/11 09:12:44;;;;;;;1.85;0.70;;;;;;;18.27;73.96;101037.88;4937769;28;20047;-85
2021/09/11 09:15:14;;;;;;;0.98;0.55;;;;;;;18.60;73.64;101041.72;4953680;28;20118;-85
2021/09/11 09:17:52;;;;;;;2.10;0.70;;;;;;;18.87;71.07;101036.63;4956706;28;20134;-85
2021/09/11 09:20:29;;;;;;;3.15;0.80;;;;;;;18.91;71.57;101048.66;4952596;28;20567;-84
2021/09/11 09:22:58;;;;;;;0.60;0.60;;;;;;;18.80;71.15;101031.78;4954360;28;20047;-84
2021/09/11 09:25:27;;;;;;;0.45;0.40;;;;;;;18.77;71.28;101041.78;4937414;28;20074;-86
2021/09/11 09:28:00;;;;;;;0.70;0.70;;;;;;;18.96;71.01;101046.28;4960386;28;20042;-84
2021/09/11 09:30:36;;;;;;;1.80;0.88;;;;;;;19.51;70.64;101046.09;4951994;28;20134;-85
2021/09/11 09:33:03;;;;;;;2.67;0.55;;;;;;;19.95;70.75;101044.53;4952376;28;20090;-84
2021/09/11 09:35:33;;;;;;;1.58;0.70;;;;;;;20.43;70.25;101038.47;4937622;28;20051;-83
2021/09/11 09:38:10;;;;;;;2.47;0.68;;;;;;;20.68;67.93;101039.19;4951004;28;20040;-82
2021/09/11 09:40:45;;;;;;;1.67;0.57;;;;;;;20.72;67.69;101034.38;4955145;28;20057;-83
2021/09/11 09:43:34;;;;;;;0.38;0.38;;;;;;;20.82;66.01;101033.53;4953500;28;20134;-83
2021/09/11 09:46:05;;;;;;;1.92;0.70;;;;;;;21.12;66.59;101042.28;4951995;28;20079;-85
2021/09/11 09:48:36;;;;;;;0.95;0.40;;;;;;;21.46;65.78;101047.31;4947953;28;20048;-82
2021/09/11 09:51:04;;;;;;;0.93;0.35;;;;;;;21.98;64.53;101036.88;4933914;28;21942;-83
2021/09/11 09:53:31;;;;;;;0.70;0.50;;;;;;;22.43;63.12;101041.28;4933468;28;20131;-83
2021/09/11 09:55:59;;;;;;;0.47;0.47;;;;;;;22.78;61.63;101037.31;4922777;28;20054;-84
2021/09/11 09:58:26;;;;;;;2.65;0.70;;;;;;;22.80;61.16;101026.38;4938564;28;20902;-83
2021/09/11 10:00:53;;;;;;;1.20;0.63;;;;;;;22.77;60.56;101030.84;4955351;28;20035;-84
2021/09/11 10:03:20;;;;;;;0.50;0.40;;;;;;;22.86;59.69;101033.19;4955068;28;20043;-83
2021/09/11 10:05:56;;;;;;;2.53;0.70;;;;;;;23.03;59.12;101030.13;4937367;28;20122;-83
2021/09/11 10:08:25;;;;;;;0.50;0.50;;;;;;;23.24;58.40;101031.88;4959456;28;20059;-83
2021/09/11 10:10:52;;;;;;;0.70;0.50;;;;;;;23.35;58.07;101028.91;4930799;28;20121;-82
2021/09/11 10:13:22;;;;;;;0.43;0.43;;;;;;;23.37;57.28;101027.28;4919976;29;20043;-83
2021/09/11 10:15:57;;;;;;;9.00;1.55;;;;;;;23.25;56.37;101027.00;4951679;28;20513;-84
2021/09/11 10:18:29;;;;;;;0.40;0.40;;;;;;;23.07;55.53;101017.97;4946901;28;20052;-83
2021/09/11 10:21:18;;;;;;;0.52;0.52;;;;;;;23.12;55.96;101021.13;4948108;28;20047;-83
2021/09/11 10:23:56;;;;;;;0.52;0.45;;;;;;;23.04;54.40;101019.63;4947077;28;20630;-83
2021/09/11 10:26:48;;;;;;;0.60;0.45;;;;;;;23.24;53.74;101022.59;4954877;28;20057;-77
2021/09/11 10:29:34;;;;;;;1.48;0.35;;;;;;;23.65;55.11;101020.38;4938656;29;20099;-85
2021/09/11 10:32:05;;;;;;;2.17;0.60;;;;;;;23.86;55.25;101016.41;4951068;28;20050;-84
2021/09/11 10:35:12;;;;;;;0.47;0.47;;;;;;;23.54;54.30;101026.19;4953211;28;20081;-84
2021/09/11 10:37:45;;;;;;;2.05;0.30;;;;;;;23.12;54.80;101032.44;4951526;28;20495;-84
2021/09/11 10:40:22;;;;;;;0.10;0.10;;;;;;;22.73;55.03;101026.47;4938241;28;20054;-83
2021/09/11 10:43:01;;;;;;;0.10;0.10;;;;;;;22.43;55.25;101030.00;4934855;28;20052;-84
2021/09/11 10:45:42;;;;;;;5.00;1.73;;;;;;;22.52;55.00;101018.22;4945379;28;20094;-85
2021/09/11 10:48:39;;;;;;;0.30;0.22;;;;;;;22.53;55.18;101020.63;4948485;28;20102;-84
2021/09/11 10:51:34;;;;;;;0.35;0.20;;;;;;;22.45;55.15;101022.72;4953923;28;20035;-86
2021/09/11 10:54:28;;;;;;;0.47;0.20;;;;;;;22.34;55.58;101019.22;4941718;28;20119;-85
2021/09/11 10:57:00;;;;;;;0.98;0.28;;;;;;;22.32;55.03;101013.19;4951973;28;20039;-85
2021/09/11 10:59:50;;;;;;;1.15;0.30;;;;;;;22.28;55.47;101012.44;4956640;28;20058;-85
2021/09/11 11:02:37;;;;;;;0.43;0.30;;;;;;;22.12;56.70;101014.22;4917850;28;20046;-82
2021/09/11 11:05:06;;;;;;;3.88;0.30;;;;;;;21.89;56.87;101028.13;4957156;28;20058;-81
2021/09/11 11:07:40;;;;;;;2.60;0.47;;;;;;;21.49;57.55;101024.75;4954713;28;20055;-84
2021/09/11 11:10:18;;;;;;;0.85;0.40;;;;;;;21.24;57.83;101022.09;4956544;28;20065;-82
2021/09/11 11:12:49;;;;;;;0.95;0.63;;;;;;;21.10;58.60;101029.81;4953136;28;20048;-83
2021/09/11 11:15:27;;;;;;;0.98;0.80;;;;;;;20.88;59.03;101028.28;4954175;28;20051;-84
2021/09/11 11:17:54;;;;;;;2.28;0.57;;;;;;;20.86;59.28;101028.69;4947403;28;20047;-85
2021/09/11 11:20:24;;;;;;;3.15;0.50;;;;;;;20.89;59.87;101039.13;4938607;28;20118;-85
2021/09/11 11:22:51;;;;;;;5.30;0.50;;;;;;;20.97;59.85;101035.06;4939456;28;20098;-81
2021/09/11 11:25:40;;;;;;;0.40;0.25;;;;;;;20.96;59.31;101033.47;4942509;28;20055;-86
2021/09/11 11:28:11;;;;;;;0.75;0.10;;;;;;;20.88;59.76;101037.53;4925380;28;20055;-86
2021/09/11 11:30:40;;;;;;;1.30;0.30;;;;;;;20.91;59.83;101028.28;4964036;28;20043;-86
2021/09/11 11:33:06;;;;;;;10.70;1.02;;;;;;;20.98;60.24;101033.88;4951119;28;20530;-88